Time;durP1;ratioP1;P1;durP2;ratioP2;P2;SDS_P1;SDS_P2;PMS_P1;PMS_P2;Temp;Humidity;BMP_temperature;BMP_pressure;BME280_temperature;BME280_humidity;BME280_pressure;Samples;Min_cycle;Max_cycle;Signal;HPM_P1;HPM_P2
2022/08/01 00:01:59;;;;;;;6.07;1.70;;;;;;;;;;5041149;27;92119;-53
2022/08/01 00:04:28;;;;;;;4.30;2.47;;;;;;;;;;5037819;27;91338;-54
2022/08/01 00:06:57;;;;;;;6.70;2.60;;;;;;;;;;5032777;28;94525;-53
2022/08/01 00:09:26;;;;;;;4.17;1.97;;;;;;;;;;5024566;28;93908;-53
2022/08/01 00:11:54;;;;;;;4.67;2.40;;;;;;;;;;5032800;28;92923;-53
2022/08/01 00:14:27;;;;;;;3.20;2.00;;;;;;;;;;5031368;28;92084;-53
2022/08/01 00:16:59;;;;;;;3.83;2.23;;;;;;;;;;5038671;28;94184;-55
2022/08/01 00:19:34;;;;;;;2.70;1.93;;;;;;;;;;5053461;27;93946;-55
2022/08/01 00:22:04;;;;;;;2.63;1.87;;;;;;;;;;5035387;28;92534;-53
2022/08/01 00:24:33;;;;;;;3.53;2.20;;;;;;;;;;5025952;28;92179;-55
2022/08/01 00:27:01;;;;;;;2.43;1.83;;;;;;;;;;5038708;28;93275;-55
2022/08/01 00:29:29;;;;;;;2.87;1.77;;;;;;;;;;5038873;28;93895;-53
2022/08/01 00:32:18;;;;;;;5.83;1.63;;;;;;;;;;5058811;27;92032;-53
2022/08/01 00:34:46;;;;;;;1.77;1.20;;;;;;;;;;5058714;27;92044;-53
2022/08/01 00:37:15;;;;;;;2.30;1.20;;;;;;;;;;5058014;27;94221;-53
2022/08/01 00:39:44;;;;;;;1.33;0.97;;;;;;;;;;5058511;27;94944;-53
2022/08/01 00:42:13;;;;;;;1.43;0.93;;;;;;;;;;5059087;27;92153;-53
2022/08/01 00:44:41;;;;;;;1.80;0.90;;;;;;;;;;5059126;27;91984;-53
2022/08/01 00:47:09;;;;;;;1.33;1.07;;;;;;;;;;5059030;27;94117;-53
2022/08/01 00:49:38;;;;;;;2.50;1.73;;;;;;;;;;5045396;27;93956;-53
2022/08/01 00:52:06;;;;;;;3.63;2.60;;;;;;;;;;5038187;28;92083;-52
2022/08/01 00:54:36;;;;;;;13.10;5.63;;;;;;;;;;5039508;28;91299;-53
2022/08/01 00:57:05;;;;;;;12.47;5.97;;;;;;;;;;5038535;28;93329;-53
2022/08/01 00:59:37;;;;;;;12.77;7.60;;;;;;;;;;5037494;28;93974;-53
2022/08/01 01:02:08;;;;;;;9.47;6.17;;;;;;;;;;5038727;27;92998;-53
2022/08/01 01:04:43;;;;;;;10.93;5.93;;;;;;;;;;5038299;28;92105;-53
2022/08/01 01:07:12;;;;;;;10.20;5.30;;;;;;;;;;5038776;28;94070;-53
2022/08/01 01:09:44;;;;;;;7.97;4.20;;;;;;;;;;5038619;28;93959;-53
2022/08/01 01:12:26;;;;;;;7.03;4.07;;;;;;;;;;5038287;28;92184;-53
2022/08/01 01:14:55;;;;;;;6.23;3.20;;;;;;;;;;5037673;28;92061;-53
2022/08/01 01:17:26;;;;;;;5.77;3.20;;;;;;;;;;5036511;28;94297;-53
2022/08/01 01:20:14;;;;;;;5.70;2.73;;;;;;;;;;5037544;28;95701;-55
2022/08/01 01:22:49;;;;;;;3.20;2.40;;;;;;;;;;5037016;27;92377;-54
2022/08/01 01:25:21;;;;;;;3.70;2.23;;;;;;;;;;5041949;28;92169;-54
2022/08/01 01:27:51;;;;;;;3.93;2.37;;;;;;;;;;5041788;27;95228;-55
2022/08/01 01:30:21;;;;;;;4.73;1.37;;;;;;;;;;5041840;28;94846;-54
2022/08/01 01:32:50;;;;;;;3.57;1.80;;;;;;;;;;5040668;28;91982;-54
2022/08/01 01:35:19;;;;;;;3.13;1.63;;;;;;;;;;5042030;28;92498;-54
2022/08/01 01:37:47;;;;;;;2.17;1.63;;;;;;;;;;5041585;28;94407;-53
2022/08/01 01:40:15;;;;;;;2.07;1.57;;;;;;;;;;5040792;28;93950;-53
2022/08/01 01:42:44;;;;;;;1.73;1.23;;;;;;;;;;5040298;28;92026;-54
2022/08/01 01:45:12;;;;;;;3.67;1.93;;;;;;;;;;5042225;27;91552;-53
2022/08/01 01:47:42;;;;;;;3.43;2.00;;;;;;;;;;5056147;27;94157;-54
2022/08/01 01:50:10;;;;;;;2.67;2.00;;;;;;;;;;5041255;28;92992;-54
2022/08/01 01:52:39;;;;;;;4.90;1.83;;;;;;;;;;5040792;28;93065;-55
2022/08/01 01:55:08;;;;;;;4.70;1.93;;;;;;;;;;5040940;27;92087;-53
2022/08/01 01:57:37;;;;;;;3.00;1.47;;;;;;;;;;5040739;28;94182;-54
2022/08/01 02:00:07;;;;;;;4.00;1.73;;;;;;;;;;5039036;28;92713;-55
2022/08/01 02:02:35;;;;;;;5.47;1.97;;;;;;;;;;5041146;28;92080;-54
2022/08/01 02:05:05;;;;;;;3.00;1.80;;;;;;;;;;5040481;28;92186;-54
2022/08/01 02:07:34;;;;;;;2.30;1.83;;;;;;;;;;5039213;28;94239;-54
2022/08/01 02:10:02;;;;;;;2.73;1.90;;;;;;;;;;5041560;28;93925;-54
2022/08/01 02:12:31;;;;;;;3.50;1.77;;;;;;;;;;5041232;28;92146;-54
2022/08/01 02:14:59;;;;;;;2.13;1.87;;;;;;;;;;5036927;27;92173;-54
2022/08/01 02:17:27;;;;;;;3.63;1.90;;;;;;;;;;5060919;27;93979;-54
2022/08/01 02:19:55;;;;;;;3.70;2.07;;;;;;;;;;5051672;27;94902;-54
2022/08/01 02:22:27;;;;;;;3.60;2.43;;;;;;;;;;5041495;28;91973;-54
2022/08/01 02:24:56;;;;;;;4.17;3.20;;;;;;;;;;5041048;28;92099;-54
2022/08/01 02:27:26;;;;;;;4.00;1.80;;;;;;;;;;5040512;28;94145;-54
2022/08/01 02:29:54;;;;;;;2.73;2.27;;;;;;;;;;5040891;28;94015;-55
2022/08/01 02:32:25;;;;;;;4.53;2.47;;;;;;;;;;5053349;27;92072;-54
2022/08/01 02:34:53;;;;;;;3.20;1.97;;;;;;;;;;5061041;27;91315;-54
2022/08/01 02:37:21;;;;;;;3.40;2.37;;;;;;;;;;5036224;27;94321;-54
2022/08/01 02:39:52;;;;;;;2.13;1.93;;;;;;;;;;5021196;28;93963;-54
2022/08/01 02:42:20;;;;;;;10.77;6.27;;;;;;;;;;5012445;28;93131;-55
2022/08/01 02:44:49;;;;;;;8.80;4.83;;;;;;;;;;5020899;28;92089;-54
2022/08/01 02:47:17;;;;;;;5.40;3.00;;;;;;;;;;5039292;27;93472;-54
2022/08/01 02:49:45;;;;;;;9.00;3.10;;;;;;;;;;5040448;28;93945;-54
2022/08/01 02:52:21;;;;;;;4.27;3.23;;;;;;;;;;5040732;28;92139;-54
2022/08/01 02:54:50;;;;;;;4.47;3.03;;;;;;;;;;5048330;27;92155;-54
2022/08/01 02:57:19;;;;;;;5.83;3.03;;;;;;;;;;5040053;28;92999;-54
2022/08/01 02:59:48;;;;;;;5.77;3.60;;;;;;;;;;5039018;28;93835;-54
2022/08/01 03:02:17;;;;;;;4.33;3.03;;;;;;;;;;5037734;28;92142;-54
2022/08/01 03:04:45;;;;;;;6.00;4.17;;;;;;;;;;5039782;27;92119;-54
2022/08/01 03:07:14;;;;;;;8.90;3.93;;;;;;;;;;5039462;28;95145;-54
2022/08/01 03:09:44;;;;;;;6.77;3.57;;;;;;;;;;5035120;27;94877;-54
2022/08/01 03:12:13;;;;;;;7.33;4.37;;;;;;;;;;5030193;28;92196;-54
2022/08/01 03:14:43;;;;;;;6.50;4.13;;;;;;;;;;5032769;28;91881;-54
2022/08/01 03:17:12;;;;;;;8.17;4.30;;;;;;;;;;5040721;27;94117;-54
2022/08/01 03:19:40;;;;;;;6.37;4.53;;;;;;;;;;5044160;27;93936;-55
2022/08/01 03:22:09;;;;;;;8.30;4.83;;;;;;;;;;5040441;28;92078;-54
2022/08/01 03:24:38;;;;;;;7.70;5.80;;;;;;;;;;5039439;28;91337;-54
2022/08/01 03:27:07;;;;;;;12.27;5.30;;;;;;;;;;5039997;28;92086;-54
2022/08/01 03:29:35;;;;;;;7.60;5.10;;;;;;;;;;5039804;28;94074;-54
2022/08/01 03:32:05;;;;;;;11.40;5.27;;;;;;;;;;5039225;28;92970;-54
2022/08/01 03:34:34;;;;;;;7.23;4.50;;;;;;;;;;5039688;28;92280;-54
2022/08/01 03:37:05;;;;;;;9.10;4.97;;;;;;;;;;5038931;28;94379;-55
2022/08/01 03:39:35;;;;;;;9.17;5.63;;;;;;;;;;5035792;28;94028;-54
2022/08/01 03:42:06;;;;;;;11.07;5.33;;;;;;;;;;5035858;28;92074;-54
2022/08/01 03:44:35;;;;;;;11.07;5.47;;;;;;;;;;5028002;27;92102;-55
2022/08/01 03:47:05;;;;;;;8.33;4.83;;;;;;;;;;5029604;27;93177;-54
2022/08/01 03:49:34;;;;;;;8.60;5.57;;;;;;;;;;5039701;27;94165;-54
2022/08/01 03:52:04;;;;;;;10.83;5.70;;;;;;;;;;5039544;27;92028;-54
2022/08/01 03:54:34;;;;;;;12.07;5.97;;;;;;;;;;5040063;28;91994;-54
2022/08/01 03:57:02;;;;;;;8.30;5.53;;;;;;;;;;5038745;27;95125;-54
2022/08/01 03:59:30;;;;;;;7.90;4.47;;;;;;;;;;5039100;27;95035;-54
2022/08/01 04:01:59;;;;;;;10.87;5.37;;;;;;;;;;5038991;28;92203;-54
2022/08/01 04:04:29;;;;;;;6.70;4.73;;;;;;;;;;5024973;28;92105;-55
2022/08/01 04:07:03;;;;;;;10.40;5.67;;;;;;;;;;5039278;28;94238;-54
2022/08/01 04:09:32;;;;;;;7.83;4.90;;;;;;;;;;5038960;28;93994;-55
2022/08/01 04:12:00;;;;;;;11.43;4.97;;;;;;;;;;5019004;28;92003;-54
2022/08/01 04:14:39;;;;;;;7.50;4.37;;;;;;;;;;5033296;28;91329;-54
2022/08/01 04:17:07;;;;;;;6.90;4.73;;;;;;;;;;5013668;28;93345;-54
2022/08/01 04:19:37;;;;;;;6.83;4.07;;;;;;;;;;5024749;28;93893;-54
2022/08/01 04:22:05;;;;;;;8.47;4.47;;;;;;;;;;5018216;28;94005;-54
2022/08/01 04:24:35;;;;;;;8.40;3.43;;;;;;;;;;4999186;28;91857;-54
2022/08/01 04:27:03;;;;;;;6.57;4.00;;;;;;;;;;5017666;28;94422;-54
2022/08/01 04:29:31;;;;;;;5.67;3.60;;;;;;;;;;5018207;28;93993;-54
2022/08/01 04:32:00;;;;;;;6.93;3.97;;;;;;;;;;5018529;28;92114;-54
2022/08/01 04:34:29;;;;;;;4.97;3.87;;;;;;;;;;5019105;28;92244;-54
2022/08/01 04:37:00;;;;;;;5.77;3.93;;;;;;;;;;5018642;28;93649;-53
2022/08/01 04:39:28;;;;;;;7.00;3.57;;;;;;;;;;5019903;28;93929;-52
2022/08/01 04:41:57;;;;;;;4.40;3.10;;;;;;;;;;5018712;28;92068;-52
2022/08/01 04:44:27;;;;;;;7.40;3.23;;;;;;;;;;5019028;28;92016;-54
2022/08/01 04:47:00;;;;;;;5.87;3.37;;;;;;;;;;5017853;28;95117;-53
2022/08/01 04:49:29;;;;;;;7.27;3.33;;;;;;;;;;5018516;28;93955;-54
2022/08/01 04:52:13;;;;;;;7.03;3.23;;;;;;;;;;5018822;28;92028;-52
2022/08/01 04:54:47;;;;;;;4.67;3.33;;;;;;;;;;5018969;28;92066;-53
2022/08/01 04:57:16;;;;;;;6.57;3.57;;;;;;;;;;5002136;28;93356;-53
2022/08/01 04:59:46;;;;;;;4.27;3.23;;;;;;;;;;5017961;28;94170;-53
2022/08/01 05:02:14;;;;;;;5.97;3.63;;;;;;;;;;5007399;28;92430;-52
2022/08/01 05:04:43;;;;;;;4.70;3.37;;;;;;;;;;5000467;28;91850;-53
2022/08/01 05:07:13;;;;;;;4.23;3.20;;;;;;;;;;5007820;28;94791;-53
2022/08/01 05:09:42;;;;;;;3.87;2.83;;;;;;;;;;5013210;28;94019;-53
2022/08/01 05:12:10;;;;;;;4.67;3.00;;;;;;;;;;5016917;28;92780;-53
2022/08/01 05:14:39;;;;;;;3.57;2.90;;;;;;;;;;5017057;28;92018;-53
2022/08/01 05:17:08;;;;;;;3.90;3.00;;;;;;;;;;5018645;28;93318;-53
2022/08/01 05:19:36;;;;;;;3.23;2.47;;;;;;;;;;5035036;28;94054;-53
2022/08/01 05:22:05;;;;;;;3.27;2.83;;;;;;;;;;5018081;28;92133;-53
2022/08/01 05:24:36;;;;;;;4.67;2.90;;;;;;;;;;5018415;28;92085;-53
2022/08/01 05:27:07;;;;;;;5.30;2.83;;;;;;;;;;5017132;28;93036;-52
2022/08/01 05:29:38;;;;;;;5.00;2.80;;;;;;;;;;5017944;28;93942;-53
2022/08/01 05:32:11;;;;;;;2.67;2.10;;;;;;;;;;5018238;28;92097;-53
2022/08/01 05:34:40;;;;;;;4.63;2.93;;;;;;;;;;5018417;28;92152;-53
2022/08/01 05:37:08;;;;;;;3.27;2.30;;;;;;;;;;5017206;28;95089;-53
2022/08/01 05:39:38;;;;;;;3.10;2.33;;;;;;;;;;5017738;28;94824;-53
2022/08/01 05:42:07;;;;;;;3.00;2.53;;;;;;;;;;5018830;28;92101;-54
2022/08/01 05:44:36;;;;;;;5.63;2.77;;;;;;;;;;5018438;28;92102;-53
2022/08/01 05:47:04;;;;;;;3.33;2.30;;;;;;;;;;5018433;28;93642;-54
2022/08/01 05:49:33;;;;;;;5.10;3.23;;;;;;;;;;5032173;28;93966;-53
2022/08/01 05:52:02;;;;;;;4.17;2.77;;;;;;;;;;5019121;28;92000;-53
2022/08/01 05:54:31;;;;;;;3.87;2.47;;;;;;;;;;5019577;28;91323;-54
2022/08/01 05:57:01;;;;;;;3.30;2.60;;;;;;;;;;5017703;28;94390;-54
2022/08/01 05:59:30;;;;;;;3.17;2.53;;;;;;;;;;5017634;28;92979;-53
2022/08/01 06:01:58;;;;;;;4.47;2.33;;;;;;;;;;5030084;28;93072;-54
2022/08/01 06:04:27;;;;;;;3.07;2.03;;;;;;;;;;5038446;28;92085;-54
2022/08/01 06:06:55;;;;;;;5.83;2.90;;;;;;;;;;5017242;28;94141;-54
2022/08/01 06:09:23;;;;;;;3.67;2.17;;;;;;;;;;5018145;28;94097;-53
2022/08/01 06:11:52;;;;;;;3.97;2.47;;;;;;;;;;5021139;28;92064;-53
2022/08/01 06:14:21;;;;;;;4.60;2.30;;;;;;;;;;5013065;28;92234;-52
2022/08/01 06:16:50;;;;;;;2.90;2.20;;;;;;;;;;5022625;28;94270;-53
2022/08/01 06:19:18;;;;;;;3.97;2.40;;;;;;;;;;5035048;28;92814;-53
2022/08/01 06:21:46;;;;;;;3.20;2.27;;;;;;;;;;5021469;28;92113;-53
2022/08/01 06:24:15;;;;;;;3.23;2.23;;;;;;;;;;5021574;28;92070;-54
2022/08/01 06:26:43;;;;;;;5.40;2.23;;;;;;;;;;5024851;28;95287;-53
2022/08/01 06:29:12;;;;;;;3.93;2.10;;;;;;;;;;5039327;28;94862;-53
2022/08/01 06:31:42;;;;;;;2.90;2.10;;;;;;;;;;5032920;28;92107;-53
2022/08/01 06:34:10;;;;;;;5.37;2.17;;;;;;;;;;5021261;28;92110;-53
2022/08/01 06:36:39;;;;;;;2.37;1.90;;;;;;;;;;5021077;28;93140;-53
2022/08/01 06:39:07;;;;;;;3.00;1.90;;;;;;;;;;5036270;28;93887;-53
2022/08/01 06:41:35;;;;;;;3.10;2.10;;;;;;;;;;5041400;27;91982;-53
2022/08/01 06:44:04;;;;;;;3.80;2.20;;;;;;;;;;5039384;28;91463;-53
2022/08/01 06:46:33;;;;;;;2.60;1.87;;;;;;;;;;5029326;28;94138;-53
2022/08/01 06:49:03;;;;;;;4.23;2.40;;;;;;;;;;5040460;28;93865;-53
2022/08/01 06:51:32;;;;;;;4.30;2.07;;;;;;;;;;5035985;28;93015;-53
2022/08/01 06:54:00;;;;;;;2.43;1.70;;;;;;;;;;5041000;28;92127;-53
2022/08/01 06:56:28;;;;;;;2.43;1.53;;;;;;;;;;5040181;28;94290;-54
2022/08/01 06:59:00;;;;;;;2.60;1.60;;;;;;;;;;5034562;28;92968;-53
2022/08/01 07:01:28;;;;;;;1.53;1.20;;;;;;;;;;5021510;28;91950;-53
2022/08/01 07:04:02;;;;;;;1.93;1.40;;;;;;;;;;5034033;28;92152;-54
2022/08/01 07:06:31;;;;;;;2.13;1.63;;;;;;;;;;5040407;28;94171;-53
2022/08/01 07:09:00;;;;;;;2.17;1.67;;;;;;;;;;5038361;27;93979;-53
2022/08/01 07:11:36;;;;;;;1.70;1.33;;;;;;;;;;5025709;28;92035;-53
2022/08/01 07:14:05;;;;;;;2.40;1.60;;;;;;;;;;5021008;28;92033;-53
2022/08/01 07:16:33;;;;;;;2.60;1.80;;;;;;;;;;5019177;28;95154;-53
2022/08/01 07:19:01;;;;;;;1.57;1.30;;;;;;;;;;5029271;28;94871;-53
2022/08/01 07:21:31;;;;;;;2.20;1.60;;;;;;;;;;5034445;27;91865;-53
2022/08/01 07:24:08;;;;;;;1.30;1.20;;;;;;;;;;5028571;28;92244;-53
2022/08/01 07:26:40;;;;;;;1.80;1.40;;;;;;;;;;5019750;28;92896;-53
2022/08/01 07:29:20;;;;;;;1.50;1.07;;;;;;;;;;5019789;28;92047;-53
2022/08/01 07:31:48;;;;;;;1.30;1.20;;;;;;;;;;5020270;28;92244;-53
2022/08/01 07:34:16;;;;;;;3.97;1.17;;;;;;;;;;5033135;27;91379;-53
2022/08/01 07:36:46;;;;;;;1.17;1.00;;;;;;;;;;5019822;28;94194;-53
2022/08/01 07:39:14;;;;;;;1.73;1.30;;;;;;;;;;5019318;28;92817;-53
2022/08/01 07:41:43;;;;;;;2.03;1.33;;;;;;;;;;5019555;28;92990;-53
2022/08/01 07:44:31;;;;;;;1.37;1.10;;;;;;;;;;5006986;28;92004;-53
2022/08/01 07:46:59;;;;;;;1.60;1.00;;;;;;;;;;5019967;28;94166;-53
2022/08/01 07:49:28;;;;;;;1.23;1.10;;;;;;;;;;5032005;28;93824;-52
2022/08/01 07:51:57;;;;;;;0.53;0.53;;;;;;;;;;5037657;27;91903;-52
2022/08/01 07:54:40;;;;;;;0.93;0.83;;;;;;;;;;5039950;28;92051;-53
2022/08/01 07:57:09;;;;;;;1.60;0.90;;;;;;;;;;5039404;28;93328;-53
2022/08/01 07:59:37;;;;;;;2.50;1.37;;;;;;;;;;5039750;28;91680;-53
2022/08/01 08:02:05;;;;;;;0.90;0.70;;;;;;;;;;5022074;28;93416;-53
2022/08/01 08:04:34;;;;;;;1.27;1.17;;;;;;;;;;5020288;28;92010;-53
2022/08/01 08:07:04;;;;;;;2.33;1.17;;;;;;;;;;5019009;28;95266;-52
2022/08/01 08:09:33;;;;;;;1.53;1.00;;;;;;;;;;5026469;28;93951;-53
2022/08/01 08:12:05;;;;;;;0.90;0.90;;;;;;;;;;5030754;28;92019;-53
2022/08/01 08:14:34;;;;;;;1.03;0.77;;;;;;;;;;5037752;28;91936;-53
2022/08/01 08:17:03;;;;;;;1.37;0.87;;;;;;;;;;5039374;28;94237;-54
2022/08/01 08:19:33;;;;;;;0.80;0.80;;;;;;;;;;5037532;28;94062;-54
2022/08/01 08:22:07;;;;;;;5.07;1.10;;;;;;;;;;5039400;28;92075;-54
2022/08/01 08:24:36;;;;;;;1.50;0.80;;;;;;;;;;5039230;28;91357;-54
2022/08/01 08:27:14;;;;;;;3.10;1.00;;;;;;;;;;5038983;27;93156;-52
2022/08/01 08:29:42;;;;;;;7.87;1.67;;;;;;;;;;5039135;28;93031;-52
2022/08/01 08:32:10;;;;;;;2.00;1.03;;;;;;;;;;5036686;27;93125;-52
2022/08/01 08:34:38;;;;;;;1.07;0.97;;;;;;;;;;5039336;28;92127;-53
2022/08/01 08:37:08;;;;;;;0.80;0.80;;;;;;;;;;5025856;28;94368;-53
2022/08/01 08:39:37;;;;;;;1.13;0.80;;;;;;;;;;5024459;28;94050;-53
2022/08/01 08:42:09;;;;;;;1.30;0.90;;;;;;;;;;5021232;28;92020;-53
2022/08/01 08:44:38;;;;;;;2.63;0.50;;;;;;;;;;5032625;28;92009;-53
2022/08/01 08:47:11;;;;;;;2.07;0.93;;;;;;;;;;5018886;28;92951;-53
2022/08/01 08:49:46;;;;;;;0.70;0.67;;;;;;;;;;5026027;28;94027;-53
2022/08/01 08:52:17;;;;;;;1.37;0.90;;;;;;;;;;5039229;28;92084;-53
2022/08/01 08:54:46;;;;;;;1.40;1.07;;;;;;;;;;5039093;28;92104;-53
2022/08/01 08:57:15;;;;;;;2.20;0.60;;;;;;;;;;5021839;28;95200;-53
2022/08/01 08:59:44;;;;;;;0.87;0.87;;;;;;;;;;5001180;28;94813;-53
2022/08/01 09:02:12;;;;;;;0.80;0.67;;;;;;;;;;5024449;28;92249;-52
2022/08/01 09:04:41;;;;;;;1.90;0.87;;;;;;;;;;5027377;28;91995;-52
2022/08/01 09:07:11;;;;;;;0.60;0.60;;;;;;;;;;5037200;28;94131;-53
2022/08/01 09:09:41;;;;;;;1.17;0.83;;;;;;;;;;5032712;28;92952;-53
2022/08/01 09:12:10;;;;;;;1.00;0.90;;;;;;;;;;5018694;28;92058;-52
2022/08/01 09:14:45;;;;;;;1.37;0.80;;;;;;;;;;5019031;28;91310;-52
2022/08/01 09:17:13;;;;;;;1.93;0.87;;;;;;;;;;5038591;28;94212;-54
2022/08/01 09:19:43;;;;;;;0.80;0.60;;;;;;;;;;5038287;28;92819;-52
2022/08/01 09:22:11;;;;;;;1.60;0.70;;;;;;;;;;5038766;28;93150;-53
2022/08/01 09:24:41;;;;;;;1.63;0.90;;;;;;;;;;5038556;28;91960;-53
2022/08/01 09:27:19;;;;;;;0.87;0.70;;;;;;;;;;5038032;28;94094;-53
2022/08/01 09:29:49;;;;;;;0.73;0.53;;;;;;;;;;5038062;27;94119;-53
2022/08/01 09:32:29;;;;;;;1.77;0.80;;;;;;;;;;5038372;28;92090;-53
2022/08/01 09:35:23;;;;;;;1.57;0.93;;;;;;;;;;5038397;28;92032;-53
2022/08/01 09:38:13;;;;;;;0.30;0.30;;;;;;;;;;5037949;28;94104;-53
2022/08/01 09:40:50;;;;;;;2.00;0.70;;;;;;;;;;5042336;27;93959;-53
2022/08/01 09:43:18;;;;;;;1.23;0.50;;;;;;;;;;5059807;27;92027;-53
2022/08/01 09:45:47;;;;;;;1.80;0.70;;;;;;;;;;5062172;27;91998;-53
2022/08/01 09:48:20;;;;;;;1.07;0.50;;;;;;;;;;5062056;27;95200;-53
2022/08/01 09:50:55;;;;;;;0.80;0.40;;;;;;;;;;5061882;27;95068;-53
2022/08/01 09:53:43;;;;;;;1.00;0.70;;;;;;;;;;5062725;27;92039;-53
2022/08/01 09:56:20;;;;;;;0.50;0.50;;;;;;;;;;5062145;27;92098;-53
2022/08/01 09:58:55;;;;;;;2.10;0.70;;;;;;;;;;5062144;27;94168;-54
2022/08/01 10:01:28;;;;;;;1.10;0.80;;;;;;;;;;5046510;27;93738;-53
2022/08/01 10:04:09;;;;;;;0.60;0.60;;;;;;;;;;5022082;28;91764;-54
2022/08/01 10:06:38;;;;;;;2.20;0.80;;;;;;;;;;5022263;28;91262;-53
2022/08/01 10:09:08;;;;;;;0.60;0.50;;;;;;;;;;5021405;28;94279;-53
2022/08/01 10:11:39;;;;;;;0.47;0.47;;;;;;;;;;5040650;28;92907;-53
2022/08/01 10:14:08;;;;;;;0.50;0.50;;;;;;;;;;5040914;28;93005;-53
2022/08/01 10:16:37;;;;;;;0.37;0.37;;;;;;;;;;5041300;27;92157;-53
2022/08/01 10:19:07;;;;;;;0.93;0.60;;;;;;;;;;5040694;28;94194;-53
2022/08/01 10:21:43;;;;;;;2.67;0.83;;;;;;;;;;5023960;28;92699;-52
2022/08/01 10:24:26;;;;;;;2.23;0.50;;;;;;;;;;5020844;28;92097;-52
2022/08/01 10:27:01;;;;;;;0.40;0.40;;;;;;;;;;5020826;28;92095;-53
2022/08/01 10:29:37;;;;;;;0.60;0.30;;;;;;;;;;5020914;28;93107;-53
2022/08/01 10:32:25;;;;;;;0.30;0.30;;;;;;;;;;5020559;28;92460;-54
2022/08/01 10:34:56;;;;;;;1.33;0.73;;;;;;;;;;5020925;28;92140;-54
2022/08/01 10:37:25;;;;;;;0.43;0.40;;;;;;;;;;5020987;28;92114;-55
2022/08/01 10:39:54;;;;;;;0.50;0.50;;;;;;;;;;5020414;28;95233;-53
2022/08/01 10:42:44;;;;;;;0.53;0.47;;;;;;;;;;5015621;28;93229;-53
2022/08/01 10:45:14;;;;;;;0.50;0.50;;;;;;;;;;5021386;28;92088;-54
2022/08/01 10:47:44;;;;;;;0.43;0.43;;;;;;;;;;5021212;28;92016;-54
2022/08/01 10:50:19;;;;;;;0.40;0.33;;;;;;;;;;5020493;28;94630;-54
2022/08/01 10:53:07;;;;;;;0.50;0.43;;;;;;;;;;5020763;28;92699;-54
2022/08/01 10:55:51;;;;;;;0.40;0.30;;;;;;;;;;5019466;28;92214;-54
2022/08/01 10:58:24;;;;;;;0.50;0.50;;;;;;;;;;5004802;28;91337;-54
2022/08/01 11:01:11;;;;;;;0.57;0.50;;;;;;;;;;5020415;28;94298;-54
2022/08/01 11:03:40;;;;;;;2.57;0.50;;;;;;;;;;5020528;28;92642;-54
2022/08/01 11:06:26;;;;;;;0.90;0.60;;;;;;;;;;5020538;28;94372;-53
2022/08/01 11:08:55;;;;;;;0.40;0.40;;;;;;;;;;5019817;28;92171;-53
2022/08/01 11:11:23;;;;;;;1.80;0.60;;;;;;;;;;5035114;28;94316;-54
2022/08/01 11:14:11;;;;;;;1.00;0.50;;;;;;;;;;5029958;28;93884;-53
2022/08/01 11:16:40;;;;;;;0.57;0.53;;;;;;;;;;5035284;28;92424;-53
2022/08/01 11:19:10;;;;;;;0.40;0.40;;;;;;;;;;5040775;28;92091;-53
2022/08/01 11:21:59;;;;;;;0.80;0.60;;;;;;;;;;5039882;28;92716;-53
2022/08/01 11:24:57;;;;;;;1.00;0.60;;;;;;;;;;5040339;28;93979;-53
2022/08/01 11:27:29;;;;;;;0.20;0.20;;;;;;;;;;5039704;28;92301;-53
2022/08/01 11:30:17;;;;;;;1.30;0.50;;;;;;;;;;5040265;28;91896;-53
2022/08/01 11:32:50;;;;;;;0.93;0.50;;;;;;;;;;5038818;28;95166;-52
2022/08/01 11:35:39;;;;;;;0.73;0.47;;;;;;;;;;5039097;28;93352;-53
2022/08/01 11:38:22;;;;;;;1.33;0.60;;;;;;;;;;5040004;28;91976;-52
2022/08/01 11:40:52;;;;;;;0.70;0.50;;;;;;;;;;5038579;28;92057;-52
2022/08/01 11:43:21;;;;;;;1.13;0.60;;;;;;;;;;5039716;28;94110;-55
2022/08/01 11:45:49;;;;;;;0.93;0.60;;;;;;;;;;5040016;28;93820;-54
2022/08/01 11:48:22;;;;;;;0.70;0.40;;;;;;;;;;5040359;28;92153;-53
2022/08/01 11:50:55;;;;;;;0.50;0.50;;;;;;;;;;5038511;28;91973;-53
2022/08/01 11:53:23;;;;;;;0.60;0.60;;;;;;;;;;5041992;27;93129;-54
2022/08/01 11:55:54;;;;;;;1.17;0.60;;;;;;;;;;5043994;27;93679;-54
2022/08/01 11:58:23;;;;;;;1.33;0.67;;;;;;;;;;5029717;28;93020;-53
2022/08/01 12:00:59;;;;;;;0.50;0.50;;;;;;;;;;5033003;28;92002;-53
2022/08/01 12:03:29;;;;;;;1.03;0.60;;;;;;;;;;5018658;28;93112;-53
2022/08/01 12:06:01;;;;;;;0.97;0.60;;;;;;;;;;5018597;28;93665;-53
2022/08/01 12:08:30;;;;;;;1.37;0.53;;;;;;;;;;5021338;28;92108;-53
2022/08/01 12:10:58;;;;;;;0.50;0.47;;;;;;;;;;5056969;27;92480;-53
2022/08/01 12:13:30;;;;;;;0.63;0.63;;;;;;;;;;5046058;27;94429;-54
2022/08/01 12:15:58;;;;;;;0.63;0.50;;;;;;;;;;5039279;28;94182;-53
2022/08/01 12:18:26;;;;;;;2.27;0.50;;;;;;;;;;5039192;27;92045;-53
2022/08/01 12:20:59;;;;;;;1.17;0.57;;;;;;;;;;4999700;28;92246;-53
2022/08/01 12:23:28;;;;;;;1.13;0.60;;;;;;;;;;4998446;28;95263;-53
2022/08/01 12:25:56;;;;;;;1.60;0.50;;;;;;;;;;4999193;28;94800;-53
2022/08/01 12:28:24;;;;;;;0.43;0.43;;;;;;;;;;4998781;28;92028;-53
2022/08/01 12:30:53;;;;;;;0.40;0.40;;;;;;;;;;4999062;28;92841;-53
2022/08/01 12:33:21;;;;;;;2.30;0.90;;;;;;;;;;4998749;28;93352;-54
2022/08/01 12:35:50;;;;;;;0.50;0.37;;;;;;;;;;4999124;28;94116;-53
2022/08/01 12:38:21;;;;;;;0.83;0.50;;;;;;;;;;4999068;28;92052;-53
2022/08/01 12:40:50;;;;;;;0.97;0.53;;;;;;;;;;5005362;28;91414;-53
2022/08/01 12:43:24;;;;;;;0.70;0.70;;;;;;;;;;5018517;28;93115;-53
2022/08/01 12:45:56;;;;;;;1.17;0.47;;;;;;;;;;5017573;28;94021;-54
2022/08/01 12:48:25;;;;;;;0.40;0.30;;;;;;;;;;5018658;28;93628;-53
2022/08/01 12:50:53;;;;;;;0.40;0.40;;;;;;;;;;5019245;28;92040;-53
2022/08/01 12:53:23;;;;;;;0.97;0.57;;;;;;;;;;5018960;28;94154;-53
2022/08/01 12:55:54;;;;;;;0.40;0.40;;;;;;;;;;5018554;28;93983;-54
2022/08/01 12:58:32;;;;;;;0.80;0.60;;;;;;;;;;5019800;28;92051;-54
2022/08/01 13:01:04;;;;;;;1.37;0.50;;;;;;;;;;5019218;28;92139;-53
2022/08/01 13:03:32;;;;;;;0.83;0.60;;;;;;;;;;5018917;28;93115;-54
2022/08/01 13:06:01;;;;;;;0.83;0.70;;;;;;;;;;5017451;28;92917;-54
2022/08/01 13:08:32;;;;;;;0.50;0.40;;;;;;;;;;5018961;28;92046;-54
2022/08/01 13:11:04;;;;;;;1.20;0.50;;;;;;;;;;5024482;28;92003;-54
2022/08/01 13:13:38;;;;;;;0.60;0.60;;;;;;;;;;5038419;28;95293;-54
2022/08/01 13:16:08;;;;;;;0.87;0.30;;;;;;;;;;5038391;27;94900;-54
2022/08/01 13:18:43;;;;;;;0.50;0.50;;;;;;;;;;5040151;27;92899;-53
2022/08/01 13:21:12;;;;;;;0.60;0.50;;;;;;;;;;5041905;27;92118;-53
2022/08/01 13:23:42;;;;;;;0.47;0.47;;;;;;;;;;5033515;28;94404;-53
2022/08/01 13:26:40;;;;;;;0.50;0.50;;;;;;;;;;5015024;28;92304;-53
2022/08/01 13:29:09;;;;;;;0.83;0.57;;;;;;;;;;5022582;28;92072;-54
2022/08/01 13:31:38;;;;;;;1.10;0.77;;;;;;;;;;5022612;28;91177;-53
2022/08/01 13:34:06;;;;;;;0.40;0.40;;;;;;;;;;5022099;28;93074;-54
2022/08/01 13:36:35;;;;;;;0.37;0.37;;;;;;;;;;5022067;28;94165;-53
2022/08/01 13:41:51;;;;;;;0.53;0.53;;;;;;;;;;5022405;28;92007;-55
2022/08/01 13:44:19;;;;;;;0.50;0.50;;;;;;;;;;5021478;28;94207;-55
2022/08/01 13:46:48;;;;;;;0.83;0.50;;;;;;;;;;5021450;28;92925;-55
2022/08/01 13:49:18;;;;;;;0.50;0.50;;;;;;;;;;5022156;28;91916;-54
2022/08/01 13:51:49;;;;;;;0.30;0.30;;;;;;;;;;5022129;28;92144;-55
2022/08/01 13:54:19;;;;;;;2.50;0.50;;;;;;;;;;5020980;28;94242;-55
2022/08/01 13:56:47;;;;;;;0.50;0.50;;;;;;;;;;5021725;28;94041;-54
2022/08/01 13:59:16;;;;;;;0.37;0.37;;;;;;;;;;5021701;28;92101;-54
2022/08/01 14:01:44;;;;;;;0.47;0.40;;;;;;;;;;5021979;28;92073;-54
2022/08/01 14:04:12;;;;;;;0.40;0.40;;;;;;;;;;5021031;28;95028;-54
2022/08/01 14:06:41;;;;;;;1.50;0.43;;;;;;;;;;5021436;28;94932;-54
2022/08/01 14:09:09;;;;;;;0.50;0.40;;;;;;;;;;5005296;28;92044;-54
2022/08/01 14:11:52;;;;;;;0.63;0.57;;;;;;;;;;5021215;28;92065;-53
2022/08/01 14:14:21;;;;;;;2.17;0.40;;;;;;;;;;5020841;28;94305;-52
2022/08/01 14:16:49;;;;;;;0.73;0.63;;;;;;;;;;5037932;28;93897;-55
2022/08/01 14:19:18;;;;;;;2.43;0.60;;;;;;;;;;5027658;28;92839;-54
2022/08/01 14:22:04;;;;;;;0.53;0.40;;;;;;;;;;5019170;28;91264;-54
2022/08/01 14:24:33;;;;;;;1.07;1.00;;;;;;;;;;5026154;28;94134;-54
2022/08/01 14:27:03;;;;;;;0.60;0.60;;;;;;;;;;5020205;28;93960;-54
2022/08/01 14:29:31;;;;;;;1.43;1.00;;;;;;;;;;5020736;28;92983;-53
2022/08/01 14:32:19;;;;;;;0.73;0.70;;;;;;;;;;5034786;28;92065;-53
2022/08/01 14:34:55;;;;;;;1.40;1.00;;;;;;;;;;5040810;28;94244;-53
2022/08/01 14:37:24;;;;;;;1.57;1.17;;;;;;;;;;5040902;28;92709;-53
2022/08/01 14:39:57;;;;;;;1.17;0.77;;;;;;;;;;5041295;28;92161;-53
2022/08/01 14:42:27;;;;;;;2.90;1.13;;;;;;;;;;5040886;28;92094;-53
2022/08/01 14:44:55;;;;;;;2.83;1.13;;;;;;;;;;5040574;28;94166;-53
2022/08/01 14:47:24;;;;;;;0.90;0.90;;;;;;;;;;5038306;28;93958;-53
2022/08/01 14:49:52;;;;;;;1.20;1.10;;;;;;;;;;5040804;28;92019;-53
2022/08/01 14:52:21;;;;;;;2.77;1.20;;;;;;;;;;5018681;28;92033;-53
2022/08/01 14:54:49;;;;;;;1.80;1.40;;;;;;;;;;5019836;28;95253;-53
2022/08/01 14:57:18;;;;;;;1.60;1.20;;;;;;;;;;5015616;28;93744;-55
2022/08/01 14:59:48;;;;;;;2.53;1.13;;;;;;;;;;5008132;28;92167;-55
2022/08/01 15:02:18;;;;;;;3.83;1.33;;;;;;;;;;5018537;28;92854;-53
2022/08/01 15:04:46;;;;;;;1.97;1.40;;;;;;;;;;5014695;28;94388;-53
2022/08/01 15:07:14;;;;;;;1.70;1.40;;;;;;;;;;5019330;28;93993;-54
2022/08/01 15:09:43;;;;;;;7.07;1.30;;;;;;;;;;5020087;28;92328;-53